Terminal Aerodrome Forecast
Issued by NWS Amarillo, TX

Home | Current Version | Previous Version | Text Only | Print | Product List | Glossary On
Versions: 1 2 3 4 5 6 7 8 9 10 11 12 13 14 15 16 17 18
000
FTUS44 KAMA 270500
TAFDHT
TAF
KDHT 270536Z 2706/2806 06018G26KT P6SM OVC005
     FM270900 02022G30KT 5SM -SHRA BR BKN006
     FM272100 02024G34KT P6SM VCSH BKN015
     FM280000 02016KT P6SM SCT015 OVC050=

USA.gov is the U.S. government's official web portal to all federal, state and local government web resources and services.